Aérodrome :
LOGIN :

S'inscrire | Disclaimer

   EN    FR    IT 

 










Légende :    VFR   VFR Marginal   IFR   IFR Intensif   IFR Très Intensif
Visi : 
Plafond : 
>= 8 km
>= 3000ft
5 à 8 km
1000 à 3000 ft
1500m à 5 km
500 à 1000 ft
800 à 1500m
200 à 500 ft
< 800m
< 200 ft
Symboles :   Orages  Brouillard  Fortes neiges  Fortes précipitations  Vent > 20 kt
SIGMETs :   Divers  Orages  Givrage  Turbulence  Onde Orograph.  Cendres Volcan.






- Altitude de l'aérodrome : 106 ft
- Code IATA : NRN


EDLV - Weeze

DERNIER METAR :
  • 250620Z 26009KT CAVOK 07/01 Q1001

METARs EXPIRÉS :
  • 250550Z 26010KT CAVOK 07/01 Q1001
  • 250520Z 27013KT CAVOK 08/02 Q1001
  • 250450Z 28013KT 9999 BKN029 08/03 Q1001
  • 250420Z 28014KT 9999 BKN049 09/03 Q1001
  • 250350Z 27012G22KT 240V300 9999 SCT038 09/03 Q1001

TAF TAF EDLV
Valide du 25 à 06h jusqu'au 26 à 06h UTC


250500Z 2506/2606 23015G25KT CAVOK
TEMPO 2506/2508 25013KT
TEMPO 2509/2513 25020G30KT
BECMG 2514/2516 23010KT
TEMPO 2516/2606 SHRA BKN020CB
PROB30
TEMPO 2517/2522 27015G25KT 3000 TSRAGS
PROB40
TEMPO 2602/2606 25020G30KT 2500 SHSN BKN014CB



MET'MAP, la Météo Aéronautique d'un coup d'oeil ! - Copyright ORBIFLY Décembre 2007 - Disclaimer

ORBIFLY MET'MAP TEAM :

Programmation & Développement : Alexandra Zaïnal
Sur une idée originale de : Baudouin d'Aumeries
Assistance à la programmation : Marc-Olivier Méhu
Soutien technique & logistique : Manuel Goepfert

Contact : metmap@orbifly.com




SOURCES & CREDITS :

   NOAA